sensor_id;sensor_type;location;lat;lon;timestamp;P1;durP1;ratioP1;P2;durP2;ratioP2
20480;SDS011;10399;50.754;3.366;2024-02-28T00:01:18;28.48;;;14.25;;
20480;SDS011;10399;50.754;3.366;2024-02-28T00:03:45;28.30;;;14.43;;
20480;SDS011;10399;50.754;3.366;2024-02-28T00:06:15;23.88;;;14.23;;
20480;SDS011;10399;50.754;3.366;2024-02-28T00:08:43;21.13;;;13.55;;
20480;SDS011;10399;50.754;3.366;2024-02-28T00:11:10;20.55;;;13.88;;
20480;SDS011;10399;50.754;3.366;2024-02-28T00:13:37;19.45;;;13.63;;
20480;SDS011;10399;50.754;3.366;2024-02-28T00:16:05;22.42;;;13.52;;
20480;SDS011;10399;50.754;3.366;2024-02-28T00:18:32;24.48;;;13.35;;
20480;SDS011;10399;50.754;3.366;2024-02-28T00:20:59;22.15;;;13.50;;
20480;SDS011;10399;50.754;3.366;2024-02-28T00:23:26;21.52;;;13.50;;
20480;SDS011;10399;50.754;3.366;2024-02-28T00:25:53;22.98;;;13.80;;
20480;SDS011;10399;50.754;3.366;2024-02-28T00:28:20;23.80;;;13.73;;
20480;SDS011;10399;50.754;3.366;2024-02-28T00:30:47;28.08;;;15.07;;
20480;SDS011;10399;50.754;3.366;2024-02-28T00:33:14;20.33;;;13.23;;
20480;SDS011;10399;50.754;3.366;2024-02-28T00:35:41;20.67;;;12.85;;
20480;SDS011;10399;50.754;3.366;2024-02-28T00:38:08;22.77;;;13.77;;
20480;SDS011;10399;50.754;3.366;2024-02-28T00:40:35;30.80;;;15.48;;
20480;SDS011;10399;50.754;3.366;2024-02-28T00:43:02;26.63;;;18.23;;
20480;SDS011;10399;50.754;3.366;2024-02-28T00:45:29;35.50;;;20.67;;
20480;SDS011;10399;50.754;3.366;2024-02-28T00:47:56;38.85;;;21.05;;
20480;SDS011;10399;50.754;3.366;2024-02-28T00:50:23;32.95;;;19.60;;
20480;SDS011;10399;50.754;3.366;2024-02-28T00:52:50;29.58;;;19.10;;
20480;SDS011;10399;50.754;3.366;2024-02-28T00:55:17;30.90;;;19.75;;
20480;SDS011;10399;50.754;3.366;2024-02-28T00:57:45;29.90;;;18.75;;
20480;SDS011;10399;50.754;3.366;2024-02-28T01:00:12;30.95;;;17.02;;
20480;SDS011;10399;50.754;3.366;2024-02-28T01:02:39;30.90;;;17.73;;
20480;SDS011;10399;50.754;3.366;2024-02-28T01:05:07;31.02;;;16.95;;
20480;SDS011;10399;50.754;3.366;2024-02-28T01:07:38;26.58;;;16.50;;
20480;SDS011;10399;50.754;3.366;2024-02-28T01:10:06;32.30;;;17.15;;
20480;SDS011;10399;50.754;3.366;2024-02-28T01:12:33;24.48;;;16.38;;
20480;SDS011;10399;50.754;3.366;2024-02-28T01:15:00;30.33;;;16.58;;
20480;SDS011;10399;50.754;3.366;2024-02-28T01:17:27;27.48;;;15.82;;
20480;SDS011;10399;50.754;3.366;2024-02-28T01:19:54;23.13;;;15.90;;
20480;SDS011;10399;50.754;3.366;2024-02-28T01:22:21;23.55;;;14.73;;
20480;SDS011;10399;50.754;3.366;2024-02-28T01:24:48;27.77;;;14.65;;
20480;SDS011;10399;50.754;3.366;2024-02-28T01:27:15;25.33;;;14.73;;
20480;SDS011;10399;50.754;3.366;2024-02-28T01:29:42;27.58;;;15.35;;
20480;SDS011;10399;50.754;3.366;2024-02-28T01:32:09;28.98;;;14.02;;
20480;SDS011;10399;50.754;3.366;2024-02-28T01:34:36;27.88;;;13.70;;
20480;SDS011;10399;50.754;3.366;2024-02-28T01:37:03;23.75;;;13.75;;
20480;SDS011;10399;50.754;3.366;2024-02-28T01:39:30;25.77;;;14.25;;
20480;SDS011;10399;50.754;3.366;2024-02-28T01:41:57;27.42;;;14.02;;
20480;SDS011;10399;50.754;3.366;2024-02-28T01:44:24;24.88;;;13.65;;
20480;SDS011;10399;50.754;3.366;2024-02-28T01:46:51;22.58;;;14.05;;
20480;SDS011;10399;50.754;3.366;2024-02-28T01:49:22;27.55;;;15.18;;
20480;SDS011;10399;50.754;3.366;2024-02-28T01:51:50;25.92;;;14.00;;
20480;SDS011;10399;50.754;3.366;2024-02-28T01:54:23;23.17;;;13.35;;
20480;SDS011;10399;50.754;3.366;2024-02-28T01:56:50;22.73;;;14.13;;
20480;SDS011;10399;50.754;3.366;2024-02-28T01:59:17;21.88;;;13.30;;
20480;SDS011;10399;50.754;3.366;2024-02-28T02:01:45;21.60;;;14.07;;
20480;SDS011;10399;50.754;3.366;2024-02-28T02:04:12;23.70;;;13.50;;
20480;SDS011;10399;50.754;3.366;2024-02-28T02:06:39;23.23;;;14.18;;
20480;SDS011;10399;50.754;3.366;2024-02-28T02:09:10;24.08;;;14.27;;
20480;SDS011;10399;50.754;3.366;2024-02-28T02:11:38;25.60;;;13.90;;
20480;SDS011;10399;50.754;3.366;2024-02-28T02:14:05;25.58;;;13.45;;
20480;SDS011;10399;50.754;3.366;2024-02-28T02:16:33;27.40;;;13.95;;
20480;SDS011;10399;50.754;3.366;2024-02-28T02:19:00;23.23;;;12.93;;
20480;SDS011;10399;50.754;3.366;2024-02-28T02:21:30;22.40;;;12.70;;
20480;SDS011;10399;50.754;3.366;2024-02-28T02:24:01;22.92;;;11.25;;
20480;SDS011;10399;50.754;3.366;2024-02-28T02:26:28;19.17;;;12.55;;
20480;SDS011;10399;50.754;3.366;2024-02-28T02:28:55;21.30;;;12.63;;
20480;SDS011;10399;50.754;3.366;2024-02-28T02:31:22;20.10;;;12.32;;
20480;SDS011;10399;50.754;3.366;2024-02-28T02:33:49;15.93;;;11.68;;
20480;SDS011;10399;50.754;3.366;2024-02-28T02:36:16;22.38;;;13.45;;
20480;SDS011;10399;50.754;3.366;2024-02-28T02:38:44;20.42;;;13.10;;
20480;SDS011;10399;50.754;3.366;2024-02-28T02:41:11;22.17;;;13.02;;
20480;SDS011;10399;50.754;3.366;2024-02-28T02:43:44;23.13;;;12.93;;
20480;SDS011;10399;50.754;3.366;2024-02-28T02:46:11;19.48;;;12.25;;
20480;SDS011;10399;50.754;3.366;2024-02-28T02:48:38;21.52;;;11.82;;
20480;SDS011;10399;50.754;3.366;2024-02-28T02:51:05;18.90;;;11.77;;
20480;SDS011;10399;50.754;3.366;2024-02-28T02:53:32;19.73;;;12.60;;
20480;SDS011;10399;50.754;3.366;2024-02-28T02:55:59;25.27;;;12.27;;
20480;SDS011;10399;50.754;3.366;2024-02-28T02:58:26;23.38;;;12.50;;
20480;SDS011;10399;50.754;3.366;2024-02-28T03:00:54;26.40;;;12.43;;
20480;SDS011;10399;50.754;3.366;2024-02-28T03:03:21;27.33;;;12.65;;
20480;SDS011;10399;50.754;3.366;2024-02-28T03:05:48;24.65;;;12.85;;
20480;SDS011;10399;50.754;3.366;2024-02-28T03:08:15;21.27;;;12.43;;
20480;SDS011;10399;50.754;3.366;2024-02-28T03:10:42;21.13;;;11.15;;
20480;SDS011;10399;50.754;3.366;2024-02-28T03:13:09;23.45;;;11.95;;
20480;SDS011;10399;50.754;3.366;2024-02-28T03:15:36;20.88;;;11.52;;
20480;SDS011;10399;50.754;3.366;2024-02-28T03:18:03;20.67;;;11.93;;
20480;SDS011;10399;50.754;3.366;2024-02-28T03:20:31;19.35;;;12.45;;
20480;SDS011;10399;50.754;3.366;2024-02-28T03:22:58;22.58;;;11.55;;
20480;SDS011;10399;50.754;3.366;2024-02-28T03:25:26;23.63;;;12.10;;
20480;SDS011;10399;50.754;3.366;2024-02-28T03:27:54;18.85;;;11.27;;
20480;SDS011;10399;50.754;3.366;2024-02-28T03:30:21;18.83;;;11.43;;
20480;SDS011;10399;50.754;3.366;2024-02-28T03:32:48;24.58;;;12.60;;
20480;SDS011;10399;50.754;3.366;2024-02-28T03:35:15;19.83;;;11.07;;
20480;SDS011;10399;50.754;3.366;2024-02-28T03:37:42;19.35;;;10.95;;
20480;SDS011;10399;50.754;3.366;2024-02-28T03:40:09;19.08;;;11.55;;
20480;SDS011;10399;50.754;3.366;2024-02-28T03:42:36;19.88;;;11.48;;
20480;SDS011;10399;50.754;3.366;2024-02-28T03:45:04;23.10;;;11.57;;
20480;SDS011;10399;50.754;3.366;2024-02-28T03:47:31;18.15;;;12.18;;
20480;SDS011;10399;50.754;3.366;2024-02-28T03:49:58;17.45;;;11.38;;
20480;SDS011;10399;50.754;3.366;2024-02-28T03:52:26;19.88;;;11.85;;
20480;SDS011;10399;50.754;3.366;2024-02-28T03:54:53;20.10;;;11.82;;
20480;SDS011;10399;50.754;3.366;2024-02-28T03:57:20;17.38;;;11.02;;
20480;SDS011;10399;50.754;3.366;2024-02-28T03:59:47;26.58;;;11.73;;
20480;SDS011;10399;50.754;3.366;2024-02-28T04:02:14;22.23;;;12.68;;
20480;SDS011;10399;50.754;3.366;2024-02-28T04:04:41;30.33;;;12.52;;
20480;SDS011;10399;50.754;3.366;2024-02-28T04:07:09;22.10;;;13.05;;
20480;SDS011;10399;50.754;3.366;2024-02-28T04:09:36;24.52;;;12.80;;
20480;SDS011;10399;50.754;3.366;2024-02-28T04:12:02;26.70;;;12.88;;
20480;SDS011;10399;50.754;3.366;2024-02-28T04:14:32;20.48;;;12.02;;
20480;SDS011;10399;50.754;3.366;2024-02-28T04:16:59;22.45;;;11.77;;
20480;SDS011;10399;50.754;3.366;2024-02-28T04:19:26;27.23;;;13.00;;
20480;SDS011;10399;50.754;3.366;2024-02-28T04:21:53;23.83;;;13.27;;
20480;SDS011;10399;50.754;3.366;2024-02-28T04:24:20;22.98;;;13.13;;
20480;SDS011;10399;50.754;3.366;2024-02-28T04:26:47;23.10;;;12.43;;
20480;SDS011;10399;50.754;3.366;2024-02-28T04:29:14;20.70;;;12.50;;
20480;SDS011;10399;50.754;3.366;2024-02-28T04:31:41;27.70;;;12.52;;
20480;SDS011;10399;50.754;3.366;2024-02-28T04:34:08;22.77;;;12.05;;
20480;SDS011;10399;50.754;3.366;2024-02-28T04:36:35;18.73;;;11.90;;
20480;SDS011;10399;50.754;3.366;2024-02-28T04:39:03;20.30;;;12.35;;
20480;SDS011;10399;50.754;3.366;2024-02-28T04:41:32;19.70;;;12.77;;
20480;SDS011;10399;50.754;3.366;2024-02-28T04:44:00;29.88;;;12.85;;
20480;SDS011;10399;50.754;3.366;2024-02-28T04:46:27;23.17;;;13.93;;
20480;SDS011;10399;50.754;3.366;2024-02-28T04:48:54;24.60;;;12.85;;
20480;SDS011;10399;50.754;3.366;2024-02-28T04:51:21;20.77;;;12.68;;
20480;SDS011;10399;50.754;3.366;2024-02-28T04:53:48;23.63;;;12.63;;
20480;SDS011;10399;50.754;3.366;2024-02-28T04:56:15;26.40;;;12.98;;
20480;SDS011;10399;50.754;3.366;2024-02-28T04:58:43;22.50;;;12.80;;
20480;SDS011;10399;50.754;3.366;2024-02-28T05:01:10;24.70;;;12.93;;
20480;SDS011;10399;50.754;3.366;2024-02-28T05:03:37;22.50;;;11.63;;
20480;SDS011;10399;50.754;3.366;2024-02-28T05:06:04;22.02;;;12.88;;
20480;SDS011;10399;50.754;3.366;2024-02-28T05:08:31;24.20;;;12.07;;
20480;SDS011;10399;50.754;3.366;2024-02-28T05:10:58;21.60;;;12.88;;
20480;SDS011;10399;50.754;3.366;2024-02-28T05:13:25;23.55;;;12.40;;
20480;SDS011;10399;50.754;3.366;2024-02-28T05:15:52;23.58;;;12.98;;
20480;SDS011;10399;50.754;3.366;2024-02-28T05:18:19;25.70;;;12.95;;
20480;SDS011;10399;50.754;3.366;2024-02-28T05:20:46;20.77;;;12.18;;
20480;SDS011;10399;50.754;3.366;2024-02-28T05:23:13;23.00;;;12.02;;
20480;SDS011;10399;50.754;3.366;2024-02-28T05:25:40;22.48;;;12.45;;
20480;SDS011;10399;50.754;3.366;2024-02-28T05:28:07;25.13;;;12.73;;
20480;SDS011;10399;50.754;3.366;2024-02-28T05:30:34;24.98;;;13.20;;
20480;SDS011;10399;50.754;3.366;2024-02-28T05:33:02;25.55;;;12.43;;
20480;SDS011;10399;50.754;3.366;2024-02-28T05:35:29;24.30;;;12.63;;
20480;SDS011;10399;50.754;3.366;2024-02-28T05:37:56;24.88;;;12.75;;
20480;SDS011;10399;50.754;3.366;2024-02-28T05:40:23;21.00;;;12.90;;
20480;SDS011;10399;50.754;3.366;2024-02-28T05:42:50;21.27;;;12.82;;
20480;SDS011;10399;50.754;3.366;2024-02-28T05:45:18;24.80;;;13.95;;
20480;SDS011;10399;50.754;3.366;2024-02-28T05:47:45;21.88;;;12.40;;
20480;SDS011;10399;50.754;3.366;2024-02-28T05:50:12;21.58;;;12.55;;
20480;SDS011;10399;50.754;3.366;2024-02-28T05:52:43;23.98;;;13.10;;
20480;SDS011;10399;50.754;3.366;2024-02-28T05:55:10;24.55;;;13.32;;
20480;SDS011;10399;50.754;3.366;2024-02-28T05:57:37;20.45;;;12.27;;
20480;SDS011;10399;50.754;3.366;2024-02-28T06:00:05;22.65;;;13.15;;
20480;SDS011;10399;50.754;3.366;2024-02-28T06:02:37;25.05;;;12.98;;
20480;SDS011;10399;50.754;3.366;2024-02-28T06:05:04;22.88;;;13.20;;
20480;SDS011;10399;50.754;3.366;2024-02-28T06:07:31;26.02;;;13.93;;
20480;SDS011;10399;50.754;3.366;2024-02-28T06:09:58;30.75;;;14.30;;
20480;SDS011;10399;50.754;3.366;2024-02-28T06:12:26;28.08;;;14.35;;
20480;SDS011;10399;50.754;3.366;2024-02-28T06:14:53;20.83;;;13.18;;
20480;SDS011;10399;50.754;3.366;2024-02-28T06:17:20;26.65;;;13.80;;
20480;SDS011;10399;50.754;3.366;2024-02-28T06:19:48;29.88;;;17.17;;
20480;SDS011;10399;50.754;3.366;2024-02-28T06:22:15;23.58;;;14.25;;
20480;SDS011;10399;50.754;3.366;2024-02-28T06:24:47;21.15;;;13.20;;
20480;SDS011;10399;50.754;3.366;2024-02-28T06:27:15;24.20;;;13.48;;
20480;SDS011;10399;50.754;3.366;2024-02-28T06:29:42;23.65;;;14.70;;
20480;SDS011;10399;50.754;3.366;2024-02-28T06:32:09;22.67;;;13.68;;
20480;SDS011;10399;50.754;3.366;2024-02-28T06:34:36;27.25;;;13.50;;
20480;SDS011;10399;50.754;3.366;2024-02-28T06:37:03;24.92;;;14.13;;
20480;SDS011;10399;50.754;3.366;2024-02-28T06:39:30;28.17;;;13.23;;
20480;SDS011;10399;50.754;3.366;2024-02-28T06:41:57;24.80;;;13.60;;
20480;SDS011;10399;50.754;3.366;2024-02-28T06:44:25;26.80;;;14.05;;
20480;SDS011;10399;50.754;3.366;2024-02-28T06:46:52;32.50;;;14.52;;
20480;SDS011;10399;50.754;3.366;2024-02-28T06:49:19;24.45;;;13.32;;
20480;SDS011;10399;50.754;3.366;2024-02-28T06:51:46;25.25;;;13.45;;
20480;SDS011;10399;50.754;3.366;2024-02-28T06:54:13;28.00;;;15.93;;
20480;SDS011;10399;50.754;3.366;2024-02-28T06:56:40;23.40;;;12.77;;
20480;SDS011;10399;50.754;3.366;2024-02-28T06:59:07;23.20;;;13.15;;
20480;SDS011;10399;50.754;3.366;2024-02-28T07:01:34;22.02;;;12.02;;
20480;SDS011;10399;50.754;3.366;2024-02-28T07:04:02;24.45;;;12.52;;
20480;SDS011;10399;50.754;3.366;2024-02-28T07:06:29;23.77;;;12.43;;
20480;SDS011;10399;50.754;3.366;2024-02-28T07:08:56;27.35;;;12.25;;
20480;SDS011;10399;50.754;3.366;2024-02-28T07:11:23;21.02;;;13.00;;
20480;SDS011;10399;50.754;3.366;2024-02-28T07:13:50;22.15;;;13.10;;
20480;SDS011;10399;50.754;3.366;2024-02-28T07:16:17;26.10;;;13.32;;
20480;SDS011;10399;50.754;3.366;2024-02-28T07:18:44;24.35;;;12.48;;
20480;SDS011;10399;50.754;3.366;2024-02-28T07:21:11;23.33;;;13.15;;
20480;SDS011;10399;50.754;3.366;2024-02-28T07:23:38;25.08;;;13.70;;
20480;SDS011;10399;50.754;3.366;2024-02-28T07:26:07;26.80;;;13.85;;
20480;SDS011;10399;50.754;3.366;2024-02-28T07:28:48;22.10;;;12.65;;
20480;SDS011;10399;50.754;3.366;2024-02-28T07:31:20;26.17;;;13.68;;
20480;SDS011;10399;50.754;3.366;2024-02-28T07:33:48;26.65;;;13.98;;
20480;SDS011;10399;50.754;3.366;2024-02-28T07:36:15;30.13;;;14.85;;
20480;SDS011;10399;50.754;3.366;2024-02-28T07:38:42;25.42;;;15.07;;
20480;SDS011;10399;50.754;3.366;2024-02-28T07:41:10;28.55;;;15.27;;
20480;SDS011;10399;50.754;3.366;2024-02-28T07:43:37;25.48;;;14.65;;
20480;SDS011;10399;50.754;3.366;2024-02-28T07:46:08;30.98;;;15.23;;
20480;SDS011;10399;50.754;3.366;2024-02-28T07:48:38;29.55;;;14.27;;
20480;SDS011;10399;50.754;3.366;2024-02-28T07:51:06;27.90;;;15.35;;
20480;SDS011;10399;50.754;3.366;2024-02-28T07:53:36;27.77;;;15.35;;
20480;SDS011;10399;50.754;3.366;2024-02-28T07:56:03;28.98;;;14.73;;
20480;SDS011;10399;50.754;3.366;2024-02-28T07:58:30;27.10;;;13.95;;
20480;SDS011;10399;50.754;3.366;2024-02-28T08:00:57;30.77;;;15.07;;
20480;SDS011;10399;50.754;3.366;2024-02-28T08:03:24;27.67;;;13.93;;
20480;SDS011;10399;50.754;3.366;2024-02-28T08:05:51;24.13;;;13.80;;
20480;SDS011;10399;50.754;3.366;2024-02-28T08:08:18;30.63;;;14.32;;
20480;SDS011;10399;50.754;3.366;2024-02-28T08:10:45;25.67;;;13.82;;
20480;SDS011;10399;50.754;3.366;2024-02-28T08:13:15;31.95;;;14.27;;
20480;SDS011;10399;50.754;3.366;2024-02-28T08:15:42;26.80;;;13.30;;
20480;SDS011;10399;50.754;3.366;2024-02-28T08:18:10;24.63;;;13.32;;
20480;SDS011;10399;50.754;3.366;2024-02-28T08:20:39;22.25;;;12.35;;
20480;SDS011;10399;50.754;3.366;2024-02-28T08:23:06;21.52;;;12.77;;
20480;SDS011;10399;50.754;3.366;2024-02-28T08:25:34;24.23;;;12.02;;
20480;SDS011;10399;50.754;3.366;2024-02-28T08:28:01;25.33;;;13.15;;
20480;SDS011;10399;50.754;3.366;2024-02-28T08:30:30;31.15;;;13.00;;
20480;SDS011;10399;50.754;3.366;2024-02-28T08:32:57;27.63;;;12.48;;
20480;SDS011;10399;50.754;3.366;2024-02-28T08:35:24;22.02;;;11.70;;
20480;SDS011;10399;50.754;3.366;2024-02-28T08:37:51;25.88;;;12.70;;
20480;SDS011;10399;50.754;3.366;2024-02-28T08:40:19;19.52;;;11.68;;
20480;SDS011;10399;50.754;3.366;2024-02-28T08:42:46;26.08;;;11.93;;
20480;SDS011;10399;50.754;3.366;2024-02-28T08:45:15;19.73;;;11.50;;
20480;SDS011;10399;50.754;3.366;2024-02-28T08:47:42;24.73;;;11.77;;
20480;SDS011;10399;50.754;3.366;2024-02-28T08:50:11;21.17;;;10.68;;
20480;SDS011;10399;50.754;3.366;2024-02-28T08:52:38;19.52;;;11.18;;
20480;SDS011;10399;50.754;3.366;2024-02-28T08:55:05;23.67;;;11.90;;
20480;SDS011;10399;50.754;3.366;2024-02-28T08:57:32;21.90;;;11.82;;
20480;SDS011;10399;50.754;3.366;2024-02-28T09:00:00;24.48;;;10.82;;
20480;SDS011;10399;50.754;3.366;2024-02-28T09:02:27;21.52;;;11.68;;
20480;SDS011;10399;50.754;3.366;2024-02-28T09:04:54;20.80;;;10.80;;
20480;SDS011;10399;50.754;3.366;2024-02-28T09:07:23;20.52;;;11.55;;
20480;SDS011;10399;50.754;3.366;2024-02-28T09:09:50;19.73;;;11.23;;
20480;SDS011;10399;50.754;3.366;2024-02-28T09:12:17;20.88;;;10.85;;
20480;SDS011;10399;50.754;3.366;2024-02-28T09:14:44;25.13;;;11.75;;
20480;SDS011;10399;50.754;3.366;2024-02-28T09:17:12;23.45;;;11.57;;
20480;SDS011;10399;50.754;3.366;2024-02-28T09:19:39;22.63;;;10.95;;
20480;SDS011;10399;50.754;3.366;2024-02-28T09:22:06;22.60;;;12.05;;
20480;SDS011;10399;50.754;3.366;2024-02-28T09:24:33;18.45;;;11.20;;
20480;SDS011;10399;50.754;3.366;2024-02-28T09:27:02;26.00;;;11.68;;
20480;SDS011;10399;50.754;3.366;2024-02-28T09:29:30;22.70;;;12.07;;
20480;SDS011;10399;50.754;3.366;2024-02-28T09:31:57;25.67;;;11.93;;
20480;SDS011;10399;50.754;3.366;2024-02-28T09:34:24;23.05;;;11.02;;
20480;SDS011;10399;50.754;3.366;2024-02-28T09:36:51;19.65;;;11.32;;
20480;SDS011;10399;50.754;3.366;2024-02-28T09:39:18;21.33;;;12.25;;
20480;SDS011;10399;50.754;3.366;2024-02-28T09:41:47;22.58;;;11.65;;
20480;SDS011;10399;50.754;3.366;2024-02-28T09:44:18;20.50;;;11.13;;
20480;SDS011;10399;50.754;3.366;2024-02-28T09:46:47;20.42;;;11.57;;
20480;SDS011;10399;50.754;3.366;2024-02-28T09:49:16;24.65;;;12.55;;
20480;SDS011;10399;50.754;3.366;2024-02-28T09:51:46;25.55;;;12.38;;
20480;SDS011;10399;50.754;3.366;2024-02-28T09:54:17;22.30;;;12.48;;
20480;SDS011;10399;50.754;3.366;2024-02-28T09:56:45;22.45;;;12.55;;
20480;SDS011;10399;50.754;3.366;2024-02-28T09:59:15;22.10;;;12.65;;
20480;SDS011;10399;50.754;3.366;2024-02-28T10:01:49;26.75;;;12.77;;
20480;SDS011;10399;50.754;3.366;2024-02-28T10:04:26;21.60;;;11.98;;
20480;SDS011;10399;50.754;3.366;2024-02-28T10:06:56;24.88;;;12.15;;
20480;SDS011;10399;50.754;3.366;2024-02-28T10:09:24;19.75;;;12.02;;
20480;SDS011;10399;50.754;3.366;2024-02-28T10:11:51;28.10;;;11.88;;
20480;SDS011;10399;50.754;3.366;2024-02-28T10:14:18;23.40;;;12.02;;
20480;SDS011;10399;50.754;3.366;2024-02-28T10:16:46;23.30;;;11.85;;
20480;SDS011;10399;50.754;3.366;2024-02-28T10:19:13;19.08;;;12.20;;
20480;SDS011;10399;50.754;3.366;2024-02-28T10:21:40;19.83;;;12.18;;
20480;SDS011;10399;50.754;3.366;2024-02-28T10:24:08;23.92;;;11.52;;
20480;SDS011;10399;50.754;3.366;2024-02-28T10:26:46;17.27;;;11.50;;
20480;SDS011;10399;50.754;3.366;2024-02-28T10:29:23;25.00;;;12.07;;
20480;SDS011;10399;50.754;3.366;2024-02-28T10:31:51;23.38;;;11.02;;
20480;SDS011;10399;50.754;3.366;2024-02-28T10:34:19;23.73;;;11.90;;
20480;SDS011;10399;50.754;3.366;2024-02-28T10:36:46;22.70;;;11.50;;
20480;SDS011;10399;50.754;3.366;2024-02-28T10:39:14;26.77;;;16.25;;
20480;SDS011;10399;50.754;3.366;2024-02-28T10:41:41;17.80;;;12.73;;
20480;SDS011;10399;50.754;3.366;2024-02-28T10:44:09;17.42;;;10.65;;
20480;SDS011;10399;50.754;3.366;2024-02-28T10:46:39;21.60;;;12.20;;
20480;SDS011;10399;50.754;3.366;2024-02-28T10:49:06;20.45;;;11.45;;
20480;SDS011;10399;50.754;3.366;2024-02-28T10:51:35;23.63;;;12.57;;
20480;SDS011;10399;50.754;3.366;2024-02-28T10:54:12;16.75;;;11.05;;
20480;SDS011;10399;50.754;3.366;2024-02-28T10:56:41;26.38;;;12.25;;
20480;SDS011;10399;50.754;3.366;2024-02-28T10:59:10;22.58;;;12.35;;
20480;SDS011;10399;50.754;3.366;2024-02-28T11:01:39;22.33;;;12.25;;
20480;SDS011;10399;50.754;3.366;2024-02-28T11:04:12;18.42;;;11.60;;
20480;SDS011;10399;50.754;3.366;2024-02-28T11:06:54;29.45;;;12.23;;
20480;SDS011;10399;50.754;3.366;2024-02-28T11:09:24;26.02;;;12.10;;
20480;SDS011;10399;50.754;3.366;2024-02-28T11:11:55;24.45;;;12.52;;
20480;SDS011;10399;50.754;3.366;2024-02-28T11:14:23;22.33;;;12.35;;
20480;SDS011;10399;50.754;3.366;2024-02-28T11:16:59;19.55;;;11.38;;
20480;SDS011;10399;50.754;3.366;2024-02-28T11:19:28;23.80;;;12.25;;
20480;SDS011;10399;50.754;3.366;2024-02-28T11:22:01;18.50;;;10.07;;
20480;SDS011;10399;50.754;3.366;2024-02-28T11:24:31;18.70;;;11.55;;
20480;SDS011;10399;50.754;3.366;2024-02-28T11:27:00;20.08;;;9.93;;
20480;SDS011;10399;50.754;3.366;2024-02-28T11:29:29;16.17;;;9.75;;
20480;SDS011;10399;50.754;3.366;2024-02-28T11:31:56;17.80;;;8.98;;
20480;SDS011;10399;50.754;3.366;2024-02-28T11:34:23;16.83;;;8.75;;
20480;SDS011;10399;50.754;3.366;2024-02-28T11:36:51;12.85;;;8.65;;
20480;SDS011;10399;50.754;3.366;2024-02-28T11:39:20;17.17;;;8.82;;
20480;SDS011;10399;50.754;3.366;2024-02-28T11:41:48;18.42;;;7.47;;
20480;SDS011;10399;50.754;3.366;2024-02-28T11:44:16;15.02;;;7.95;;
20480;SDS011;10399;50.754;3.366;2024-02-28T11:46:47;14.75;;;8.00;;
20480;SDS011;10399;50.754;3.366;2024-02-28T11:49:16;19.98;;;8.18;;
20480;SDS011;10399;50.754;3.366;2024-02-28T11:51:44;15.18;;;8.32;;
20480;SDS011;10399;50.754;3.366;2024-02-28T11:54:11;11.10;;;6.75;;
20480;SDS011;10399;50.754;3.366;2024-02-28T11:56:39;14.50;;;7.60;;
20480;SDS011;10399;50.754;3.366;2024-02-28T11:59:06;11.85;;;6.85;;
20480;SDS011;10399;50.754;3.366;2024-02-28T12:01:38;15.23;;;7.78;;
20480;SDS011;10399;50.754;3.366;2024-02-28T12:04:08;10.77;;;6.40;;
20480;SDS011;10399;50.754;3.366;2024-02-28T12:06:36;11.32;;;6.30;;
20480;SDS011;10399;50.754;3.366;2024-02-28T12:09:05;9.93;;;5.97;;
20480;SDS011;10399;50.754;3.366;2024-02-28T12:11:36;7.68;;;5.00;;
20480;SDS011;10399;50.754;3.366;2024-02-28T12:14:04;11.02;;;5.32;;
20480;SDS011;10399;50.754;3.366;2024-02-28T12:16:38;7.30;;;4.85;;
20480;SDS011;10399;50.754;3.366;2024-02-28T12:19:09;9.55;;;5.30;;
20480;SDS011;10399;50.754;3.366;2024-02-28T12:21:37;10.02;;;5.10;;
20480;SDS011;10399;50.754;3.366;2024-02-28T12:24:08;10.90;;;5.30;;
20480;SDS011;10399;50.754;3.366;2024-02-28T12:26:37;6.20;;;4.65;;
20480;SDS011;10399;50.754;3.366;2024-02-28T12:29:05;7.38;;;4.50;;
20480;SDS011;10399;50.754;3.366;2024-02-28T12:31:32;7.22;;;4.40;;
20480;SDS011;10399;50.754;3.366;2024-02-28T12:33:59;11.77;;;5.65;;
20480;SDS011;10399;50.754;3.366;2024-02-28T12:36:26;12.80;;;5.10;;
20480;SDS011;10399;50.754;3.366;2024-02-28T12:38:54;8.43;;;3.97;;
20480;SDS011;10399;50.754;3.366;2024-02-28T12:41:20;7.22;;;3.90;;
20480;SDS011;10399;50.754;3.366;2024-02-28T12:43:47;5.95;;;3.85;;
20480;SDS011;10399;50.754;3.366;2024-02-28T12:46:16;10.70;;;4.13;;
20480;SDS011;10399;50.754;3.366;2024-02-28T12:48:42;9.93;;;3.75;;
20480;SDS011;10399;50.754;3.366;2024-02-28T12:51:11;5.65;;;3.47;;
20480;SDS011;10399;50.754;3.366;2024-02-28T12:53:46;6.90;;;3.58;;
20480;SDS011;10399;50.754;3.366;2024-02-28T12:56:17;5.05;;;3.30;;
20480;SDS011;10399;50.754;3.366;2024-02-28T12:58:44;7.60;;;3.25;;
20480;SDS011;10399;50.754;3.366;2024-02-28T13:01:11;8.05;;;3.78;;
20480;SDS011;10399;50.754;3.366;2024-02-28T13:03:39;4.15;;;3.10;;
20480;SDS011;10399;50.754;3.366;2024-02-28T13:06:06;5.72;;;2.88;;
20480;SDS011;10399;50.754;3.366;2024-02-28T13:08:33;4.75;;;2.83;;
20480;SDS011;10399;50.754;3.366;2024-02-28T13:11:00;4.72;;;3.13;;
20480;SDS011;10399;50.754;3.366;2024-02-28T13:13:27;3.55;;;2.40;;
20480;SDS011;10399;50.754;3.366;2024-02-28T13:15:54;6.10;;;2.90;;
20480;SDS011;10399;50.754;3.366;2024-02-28T13:18:21;6.00;;;2.97;;
20480;SDS011;10399;50.754;3.366;2024-02-28T13:20:48;4.55;;;2.70;;
20480;SDS011;10399;50.754;3.366;2024-02-28T13:23:15;4.82;;;3.17;;
20480;SDS011;10399;50.754;3.366;2024-02-28T13:25:42;9.05;;;4.95;;
20480;SDS011;10399;50.754;3.366;2024-02-28T13:28:09;9.43;;;3.88;;
20480;SDS011;10399;50.754;3.366;2024-02-28T13:30:36;5.72;;;3.00;;
20480;SDS011;10399;50.754;3.366;2024-02-28T13:33:03;7.45;;;4.55;;
20480;SDS011;10399;50.754;3.366;2024-02-28T13:35:31;9.63;;;2.85;;
20480;SDS011;10399;50.754;3.366;2024-02-28T13:37:58;4.03;;;2.90;;
20480;SDS011;10399;50.754;3.366;2024-02-28T13:40:28;5.68;;;3.67;;
20480;SDS011;10399;50.754;3.366;2024-02-28T13:42:55;5.18;;;3.50;;
20480;SDS011;10399;50.754;3.366;2024-02-28T13:45:22;6.20;;;3.47;;
20480;SDS011;10399;50.754;3.366;2024-02-28T13:47:49;5.55;;;3.70;;
20480;SDS011;10399;50.754;3.366;2024-02-28T13:50:16;5.93;;;3.78;;
20480;SDS011;10399;50.754;3.366;2024-02-28T13:52:43;6.53;;;3.25;;
20480;SDS011;10399;50.754;3.366;2024-02-28T13:55:10;6.57;;;3.50;;
20480;SDS011;10399;50.754;3.366;2024-02-28T13:57:37;6.65;;;3.65;;
20480;SDS011;10399;50.754;3.366;2024-02-28T14:00:04;10.57;;;3.92;;
20480;SDS011;10399;50.754;3.366;2024-02-28T14:02:35;8.68;;;3.55;;
20480;SDS011;10399;50.754;3.366;2024-02-28T14:05:02;7.00;;;3.53;;
20480;SDS011;10399;50.754;3.366;2024-02-28T14:07:29;5.72;;;3.60;;
20480;SDS011;10399;50.754;3.366;2024-02-28T14:09:56;5.60;;;3.45;;
20480;SDS011;10399;50.754;3.366;2024-02-28T14:12:25;7.47;;;3.70;;
20480;SDS011;10399;50.754;3.366;2024-02-28T14:14:52;6.25;;;3.60;;
20480;SDS011;10399;50.754;3.366;2024-02-28T14:17:19;7.95;;;3.83;;
20480;SDS011;10399;50.754;3.366;2024-02-28T14:19:46;4.28;;;3.10;;
20480;SDS011;10399;50.754;3.366;2024-02-28T14:22:14;5.18;;;3.08;;
20480;SDS011;10399;50.754;3.366;2024-02-28T14:24:41;8.45;;;3.22;;
20480;SDS011;10399;50.754;3.366;2024-02-28T14:27:08;5.32;;;3.30;;
20480;SDS011;10399;50.754;3.366;2024-02-28T14:29:35;5.35;;;3.08;;